Luke Air Force Base, AZ

6:18 PM MST on February 05, 2016 (GMT -0700)
Luke Field Homes | | Change Station
CLOSE
Current Station
Personal Weather Station
Location: Litchfield Park, AZ
Elevation: 1070 ft
Nearby Weather Stations

Elev 1070 ft 33.53 °N, 112.35 °W | Updated 13 seconds ago

Clear
Clear
64.0 °F
Feels Like 64.0 °F
N
0.0
Wind Variable Wind from NNE
Gusts 0.0 mph

Today
High -- | Low -- °F
--% Chance of Precip.
Yesterday
High -- | Low -- °F
Precip. -- in
Pressure 30.26 in
Visibility 10.0 miles
Clouds Clear
Dew Point 21 °F
Humidity 19%
Rainfall 0.00 in
Snow Depth Not available.
7:22 AM 6:04 PM
Waning Crescent, 8% visible
METAR KLUF 060058Z 36010KT 10SM CLR 18/M07 A3026 RMK AO2A SLP245 T01811071 $
Pressure 30.26 in
Visibility 10.0 miles
Clouds Clear
Dew Point 21 °F
Humidity 19%
Rainfall 0.00 in
Snow Depth Not available.
7:22 AM 6:04 PM
Waning Crescent, 8% visible
METAR KLUF 060058Z 36010KT 10SM CLR 18/M07 A3026 RMK AO2A SLP245 T01811071 $

10-Day Weather Forecast

Almanac

Astronomy

Feb. 05, 2016 Rise Set
Actual Time
Civil Twilight
Nautical Twilight
Astronomical Twilight
Moon
Length of Visible Light
Length of Day
Tomorrow will be .
, % of the Moon is Illuminated

Today's Extremes

State Highs State Lows

Community

WunderPhotos

Upload Photos

1,890,904 photos uploaded!

WunderBlog® & News

Nearby

Air Quality

  Air Quality AQ Index Pollutant
Not available.

Snow Depth

Station Depth Elevation

Earthquake Activity

City Distance Mag. Time & Date
Minimum magnitude displayed is 2.5.

Coastal Water Temperatures

Place Temperature

Stations

Nearby Weather Stations

Station Location Temp. Windchill Dew Point Humidity Wind Precip. Elev Updated Type
                   

Watches & Warnings

There are currently no watches in effect.